Time;durP1;ratioP1;P1;durP2;ratioP2;P2;SDS_P1;SDS_P2;PMS_P1;PMS_P2;Temp;Humidity;BMP_temperature;BMP_pressure;BME280_temperature;BME280_humidity;BME280_pressure;Samples;Min_cycle;Max_cycle;Signal;HPM_P1;HPM_P2
2024/03/29 00:01:50;;;;;;;5.95;2.03;;;;;;;;;;4970557;28;20051;-81
2024/03/29 00:04:18;;;;;;;7.20;2.08;;;;;;;;;;4974780;28;20062;-80
2024/03/29 00:06:46;;;;;;;4.53;2.05;;;;;;;;;;4971642;28;20051;-80
2024/03/29 00:09:15;;;;;;;3.95;1.75;;;;;;;;;;4972376;28;20050;-80
2024/03/29 00:11:44;;;;;;;5.90;1.98;;;;;;;;;;4972487;28;20065;-80
2024/03/29 00:14:12;;;;;;;4.13;1.85;;;;;;;;;;4972298;28;20066;-81
2024/03/29 00:16:40;;;;;;;4.32;2.00;;;;;;;;;;4971729;28;20078;-80
2024/03/29 00:19:08;;;;;;;5.55;2.22;;;;;;;;;;4972101;28;20081;-81
2024/03/29 00:21:36;;;;;;;10.40;2.20;;;;;;;;;;4971842;28;20062;-81
2024/03/29 00:24:05;;;;;;;5.07;1.90;;;;;;;;;;4956913;28;20062;-84
2024/03/29 00:26:33;;;;;;;6.43;1.90;;;;;;;;;;4972359;28;20051;-82
2024/03/29 00:29:01;;;;;;;3.50;2.08;;;;;;;;;;4971428;28;20081;-81
2024/03/29 00:31:29;;;;;;;6.07;2.03;;;;;;;;;;4971927;28;20055;-80
2024/03/29 00:33:57;;;;;;;5.93;2.25;;;;;;;;;;4956275;28;20054;-82
2024/03/29 00:36:26;;;;;;;6.50;1.80;;;;;;;;;;4950653;28;20062;-81
2024/03/29 00:38:54;;;;;;;4.18;2.10;;;;;;;;;;4951173;28;20039;-81
2024/03/29 00:41:23;;;;;;;7.47;2.85;;;;;;;;;;4950007;28;20525;-81
2024/03/29 00:43:51;;;;;;;7.20;3.13;;;;;;;;;;4951617;28;20051;-82
2024/03/29 00:46:19;;;;;;;6.32;2.35;;;;;;;;;;4956356;28;20047;-81
2024/03/29 00:48:47;;;;;;;6.20;2.30;;;;;;;;;;4956176;28;20058;-83
2024/03/29 00:51:17;;;;;;;4.45;1.92;;;;;;;;;;4950508;29;20055;-81
2024/03/29 00:53:45;;;;;;;10.23;2.03;;;;;;;;;;4951342;28;20070;-82
2024/03/29 00:56:16;;;;;;;4.22;1.60;;;;;;;;;;4951306;29;20070;-81
2024/03/29 00:58:45;;;;;;;8.18;2.15;;;;;;;;;;4950838;29;20051;-80
2024/03/29 01:01:13;;;;;;;8.68;2.30;;;;;;;;;;4951501;28;20047;-81
2024/03/29 01:03:41;;;;;;;6.63;2.65;;;;;;;;;;4965239;28;20077;-81
2024/03/29 01:06:09;;;;;;;7.10;2.35;;;;;;;;;;4973157;28;20501;-80
2024/03/29 01:08:39;;;;;;;10.10;2.40;;;;;;;;;;4973895;28;20055;-80
2024/03/29 01:11:08;;;;;;;9.73;2.50;;;;;;;;;;4973658;28;20074;-81
2024/03/29 01:13:36;;;;;;;10.82;2.47;;;;;;;;;;4973205;28;20054;-81
2024/03/29 01:16:04;;;;;;;5.55;2.25;;;;;;;;;;4972683;28;20051;-81
2024/03/29 01:18:33;;;;;;;10.27;2.40;;;;;;;;;;4961389;28;20665;-82
2024/03/29 01:21:03;;;;;;;6.70;2.80;;;;;;;;;;4953944;29;20394;-81
2024/03/29 01:23:32;;;;;;;7.85;2.50;;;;;;;;;;4953658;29;20052;-81
2024/03/29 01:26:00;;;;;;;7.72;2.53;;;;;;;;;;4953816;29;20046;-80
2024/03/29 01:28:29;;;;;;;8.60;2.60;;;;;;;;;;4953595;29;20055;-81
2024/03/29 01:30:58;;;;;;;9.40;2.70;;;;;;;;;;4953510;29;20055;-83
2024/03/29 01:33:27;;;;;;;11.10;3.20;;;;;;;;;;4952352;29;20094;-82
2024/03/29 01:35:56;;;;;;;7.03;3.13;;;;;;;;;;4953592;29;20066;-81
2024/03/29 01:38:24;;;;;;;6.20;2.53;;;;;;;;;;4954376;29;20047;-81
2024/03/29 01:40:52;;;;;;;5.85;3.20;;;;;;;;;;4954043;29;20525;-81
2024/03/29 01:43:20;;;;;;;6.63;2.47;;;;;;;;;;4969971;28;20047;-81
2024/03/29 01:45:50;;;;;;;11.52;2.83;;;;;;;;;;4980587;28;20058;-81
2024/03/29 01:48:19;;;;;;;10.40;3.00;;;;;;;;;;4962292;28;20069;-81
2024/03/29 01:50:52;;;;;;;10.25;3.50;;;;;;;;;;4993558;28;20054;-81
2024/03/29 01:53:21;;;;;;;8.57;3.30;;;;;;;;;;4991095;28;20050;-81
2024/03/29 01:55:49;;;;;;;6.20;3.25;;;;;;;;;;4993418;28;20042;-81
2024/03/29 01:58:20;;;;;;;8.93;3.20;;;;;;;;;;4991080;28;20054;-81
2024/03/29 02:00:58;;;;;;;10.27;3.17;;;;;;;;;;4991854;28;20051;-81
2024/03/29 02:03:27;;;;;;;8.55;3.10;;;;;;;;;;4994093;28;20115;-81
2024/03/29 02:05:57;;;;;;;6.88;3.20;;;;;;;;;;4992140;28;20058;-81
2024/03/29 02:08:26;;;;;;;8.10;2.72;;;;;;;;;;4993248;28;20043;-82
2024/03/29 02:10:56;;;;;;;10.43;2.95;;;;;;;;;;4976142;28;20034;-81
2024/03/29 02:13:26;;;;;;;7.50;3.13;;;;;;;;;;4990654;28;20046;-81
2024/03/29 02:15:54;;;;;;;8.70;3.10;;;;;;;;;;4991685;28;20061;-81
2024/03/29 02:18:22;;;;;;;11.48;3.45;;;;;;;;;;4993914;28;20043;-82
2024/03/29 02:20:50;;;;;;;6.93;3.25;;;;;;;;;;4993888;28;20470;-83
2024/03/29 02:23:27;;;;;;;7.38;2.72;;;;;;;;;;4993531;28;20065;-81
2024/03/29 02:25:56;;;;;;;7.47;3.28;;;;;;;;;;4994358;28;20054;-81
2024/03/29 02:28:26;;;;;;;10.00;3.72;;;;;;;;;;4993704;28;20397;-80
2024/03/29 02:30:54;;;;;;;8.65;3.05;;;;;;;;;;4992573;28;20058;-81
2024/03/29 02:33:23;;;;;;;14.40;3.40;;;;;;;;;;4993677;28;20038;-81
2024/03/29 02:35:51;;;;;;;7.97;2.95;;;;;;;;;;4992556;28;20059;-82
2024/03/29 02:38:20;;;;;;;8.00;2.95;;;;;;;;;;4992323;28;20050;-82
2024/03/29 02:40:48;;;;;;;10.32;3.33;;;;;;;;;;4993750;28;20054;-82
2024/03/29 02:43:16;;;;;;;7.15;2.90;;;;;;;;;;4993509;28;20040;-81
2024/03/29 02:45:44;;;;;;;10.07;3.80;;;;;;;;;;4992496;28;20061;-81
2024/03/29 02:48:12;;;;;;;12.90;3.25;;;;;;;;;;4993644;28;20049;-83
2024/03/29 02:50:41;;;;;;;8.32;3.25;;;;;;;;;;4992666;28;20057;-81
2024/03/29 02:53:13;;;;;;;8.30;3.53;;;;;;;;;;4992593;28;20493;-82
2024/03/29 02:55:42;;;;;;;9.15;3.65;;;;;;;;;;4993271;28;20051;-81
2024/03/29 02:58:10;;;;;;;7.45;3.05;;;;;;;;;;4992278;28;20054;-82
2024/03/29 03:00:38;;;;;;;9.93;3.33;;;;;;;;;;4983998;28;20058;-81
2024/03/29 03:03:06;;;;;;;9.65;3.17;;;;;;;;;;4969593;28;20051;-81
2024/03/29 03:05:35;;;;;;;6.88;3.30;;;;;;;;;;4973020;28;20035;-83
2024/03/29 03:11:01;;;;;;;6.80;3.85;;;;;;;;;;4969369;28;20420;-84
2024/03/29 03:13:30;;;;;;;9.20;3.67;;;;;;;;;;4968832;28;20418;-82
2024/03/29 03:15:58;;;;;;;6.32;3.20;;;;;;;;;;4967107;28;20059;-81
2024/03/29 03:18:26;;;;;;;8.75;4.07;;;;;;;;;;4971873;28;20421;-81
2024/03/29 03:20:55;;;;;;;7.88;3.33;;;;;;;;;;4972701;28;20058;-82
2024/03/29 03:23:24;;;;;;;7.93;3.28;;;;;;;;;;4973554;28;20089;-82
2024/03/29 03:26:01;;;;;;;8.38;4.45;;;;;;;;;;4973138;28;20055;-81
2024/03/29 03:28:29;;;;;;;11.75;4.43;;;;;;;;;;4972670;28;20386;-82
2024/03/29 03:30:57;;;;;;;9.93;3.72;;;;;;;;;;4973111;28;20047;-82
2024/03/29 03:33:26;;;;;;;14.77;3.97;;;;;;;;;;4973137;28;20055;-81
2024/03/29 03:35:54;;;;;;;9.07;3.90;;;;;;;;;;4972223;28;20055;-81
2024/03/29 03:38:23;;;;;;;8.80;4.72;;;;;;;;;;4972566;28;20410;-80
2024/03/29 03:40:51;;;;;;;6.88;3.50;;;;;;;;;;4973092;28;20042;-84
2024/03/29 03:43:19;;;;;;;9.10;4.00;;;;;;;;;;4973678;28;20066;-83
2024/03/29 03:45:47;;;;;;;8.77;3.58;;;;;;;;;;4973303;28;20049;-82
2024/03/29 03:48:16;;;;;;;11.02;3.67;;;;;;;;;;4973230;28;20067;-83
2024/03/29 03:50:46;;;;;;;11.38;4.13;;;;;;;;;;4972403;28;20062;-83
2024/03/29 03:53:14;;;;;;;9.45;4.20;;;;;;;;;;4971849;28;20405;-83
2024/03/29 03:55:43;;;;;;;6.63;3.35;;;;;;;;;;4972286;28;20054;-82
2024/03/29 03:58:11;;;;;;;7.63;3.45;;;;;;;;;;4972230;28;20051;-82
2024/03/29 04:00:39;;;;;;;9.23;3.60;;;;;;;;;;4972888;28;20051;-81
2024/03/29 04:03:07;;;;;;;6.50;3.67;;;;;;;;;;4966442;28;20054;-81
2024/03/29 04:05:38;;;;;;;10.55;3.20;;;;;;;;;;4971799;28;20066;-82
2024/03/29 04:08:07;;;;;;;9.23;3.83;;;;;;;;;;4962608;28;20046;-82
2024/03/29 04:10:39;;;;;;;12.68;4.00;;;;;;;;;;4955576;28;20066;-81
2024/03/29 04:13:07;;;;;;;;;;;;;;;;;;4972121;28;20067;-81
2024/03/29 04:15:35;;;;;;;13.40;3.88;;;;;;;;;;4972726;28;19929;-81
2024/03/29 04:18:03;;;;;;;11.73;4.38;;;;;;;;;;4972470;28;20050;-81
2024/03/29 04:20:32;;;;;;;18.50;4.70;;;;;;;;;;4972262;28;20406;-81
2024/03/29 04:23:03;;;;;;;11.48;3.95;;;;;;;;;;4972407;28;20058;-80
2024/03/29 04:25:32;;;;;;;7.88;3.78;;;;;;;;;;4972213;28;20078;-80
2024/03/29 04:28:00;;;;;;;13.20;4.40;;;;;;;;;;4972132;28;20510;-82
2024/03/29 04:30:28;;;;;;;12.70;4.30;;;;;;;;;;4972518;28;20490;-82
2024/03/29 04:32:56;;;;;;;10.77;4.57;;;;;;;;;;4971768;28;20050;-82
2024/03/29 04:35:25;;;;;;;9.35;4.10;;;;;;;;;;4971835;28;20047;-81
2024/03/29 04:37:53;;;;;;;9.15;4.38;;;;;;;;;;4975077;28;20070;-81
2024/03/29 04:40:21;;;;;;;14.27;4.45;;;;;;;;;;4975764;28;20509;-81
2024/03/29 04:42:49;;;;;;;11.95;4.70;;;;;;;;;;4976775;28;20045;-81
2024/03/29 04:45:18;;;;;;;13.70;4.63;;;;;;;;;;4976054;28;20058;-81
2024/03/29 04:47:46;;;;;;;9.43;4.32;;;;;;;;;;4975935;28;20058;-80
2024/03/29 04:50:14;;;;;;;10.32;4.05;;;;;;;;;;4975447;28;20046;-81
2024/03/29 04:52:42;;;;;;;13.90;4.88;;;;;;;;;;4975624;28;20413;-81
2024/03/29 04:55:10;;;;;;;15.30;4.47;;;;;;;;;;4975468;28;20050;-81
2024/03/29 04:57:39;;;;;;;10.77;3.97;;;;;;;;;;4975585;28;20057;-82
2024/03/29 05:00:08;;;;;;;12.13;4.75;;;;;;;;;;4974958;28;20059;-82
2024/03/29 05:02:37;;;;;;;11.60;4.38;;;;;;;;;;4975944;28;20056;-82
2024/03/29 05:05:06;;;;;;;11.00;4.05;;;;;;;;;;4975794;28;20046;-83
2024/03/29 05:07:34;;;;;;;11.02;4.60;;;;;;;;;;4974840;28;20058;-81
2024/03/29 05:10:06;;;;;;;14.45;4.80;;;;;;;;;;4975129;28;20414;-82
2024/03/29 05:12:35;;;;;;;8.95;4.82;;;;;;;;;;4975088;28;20397;-81
2024/03/29 05:15:04;;;;;;;11.50;4.32;;;;;;;;;;4974738;28;20074;-80
2024/03/29 05:17:32;;;;;;;11.45;4.65;;;;;;;;;;4975196;28;20065;-80
2024/03/29 05:20:00;;;;;;;13.27;4.97;;;;;;;;;;4975977;28;20047;-81
2024/03/29 05:22:28;;;;;;;11.02;5.25;;;;;;;;;;4974364;28;20476;-80
2024/03/29 05:24:56;;;;;;;8.38;4.10;;;;;;;;;;4975361;28;20050;-81
2024/03/29 05:27:25;;;;;;;8.60;4.45;;;;;;;;;;4974901;28;20375;-81
2024/03/29 05:29:53;;;;;;;7.80;3.75;;;;;;;;;;4975057;28;20051;-81
2024/03/29 05:32:21;;;;;;;12.50;3.80;;;;;;;;;;4974594;28;20066;-81
2024/03/29 05:34:49;;;;;;;7.82;3.88;;;;;;;;;;4975297;28;20046;-81
2024/03/29 05:37:18;;;;;;;11.07;4.18;;;;;;;;;;4974649;28;20059;-80
2024/03/29 05:39:47;;;;;;;10.40;4.35;;;;;;;;;;4974250;28;20047;-80
2024/03/29 05:42:15;;;;;;;13.13;4.43;;;;;;;;;;4974046;28;20058;-81
2024/03/29 05:44:43;;;;;;;13.35;4.03;;;;;;;;;;4974935;28;20058;-81
2024/03/29 05:47:11;;;;;;;9.57;4.20;;;;;;;;;;4975453;28;20046;-81
2024/03/29 05:49:39;;;;;;;9.95;3.83;;;;;;;;;;4974477;28;20066;-81
2024/03/29 05:52:07;;;;;;;10.30;4.03;;;;;;;;;;4976436;28;20071;-80
2024/03/29 05:54:36;;;;;;;12.57;5.20;;;;;;;;;;4976915;28;20065;-82
2024/03/29 05:57:06;;;;;;;14.30;5.05;;;;;;;;;;4978193;28;20046;-80
2024/03/29 05:59:36;;;;;;;18.42;5.40;;;;;;;;;;5001853;28;20063;-80
2024/03/29 06:02:04;;;;;;;18.10;5.22;;;;;;;;;;4986542;28;20055;-80
2024/03/29 06:04:32;;;;;;;11.55;4.78;;;;;;;;;;4986195;28;20062;-80
2024/03/29 06:07:04;;;;;;;15.05;6.32;;;;;;;;;;4979024;28;20413;-81
2024/03/29 06:09:33;;;;;;;14.13;4.80;;;;;;;;;;4973843;28;20498;-83
2024/03/29 06:12:01;;;;;;;11.07;4.53;;;;;;;;;;4974044;28;20074;-81
2024/03/29 06:17:27;;;;;;;11.95;4.95;;;;;;;;;;4958398;28;20498;-83
2024/03/29 06:20:02;;;;;;;14.50;5.53;;;;;;;;;;4974340;28;20494;-81
2024/03/29 06:22:32;;;;;;;11.15;4.50;;;;;;;;;;4973915;28;20059;-82
2024/03/29 06:25:04;;;;;;;16.52;5.38;;;;;;;;;;4974348;28;20055;-83
2024/03/29 06:27:33;;;;;;;9.77;4.30;;;;;;;;;;4973923;28;20124;-82
2024/03/29 06:30:03;;;;;;;11.02;4.07;;;;;;;;;;4974114;28;20042;-81
2024/03/29 06:32:32;;;;;;;11.15;4.00;;;;;;;;;;4973680;28;20063;-81
2024/03/29 06:35:00;;;;;;;11.00;3.90;;;;;;;;;;4973435;28;20054;-81
2024/03/29 06:37:29;;;;;;;10.00;4.65;;;;;;;;;;4973625;28;20057;-82
2024/03/29 06:39:57;;;;;;;10.60;4.72;;;;;;;;;;4973429;28;20055;-80
2024/03/29 06:42:26;;;;;;;13.65;4.95;;;;;;;;;;4971540;28;20062;-81
2024/03/29 06:44:55;;;;;;;15.80;5.60;;;;;;;;;;4974473;28;20043;-82
2024/03/29 06:47:24;;;;;;;12.85;5.10;;;;;;;;;;4973198;28;20062;-83
2024/03/29 06:49:52;;;;;;;13.30;5.35;;;;;;;;;;4973653;28;20046;-84
2024/03/29 06:52:20;;;;;;;12.85;4.82;;;;;;;;;;4974367;28;20058;-82
2024/03/29 06:54:48;;;;;;;13.88;4.63;;;;;;;;;;4972887;28;20058;-83
2024/03/29 06:57:20;;;;;;;15.52;5.75;;;;;;;;;;4973427;28;20059;-82
2024/03/29 06:59:48;;;;;;;12.45;4.10;;;;;;;;;;4972420;28;20051;-81
2024/03/29 07:02:16;;;;;;;11.20;4.43;;;;;;;;;;4973188;28;20073;-81
2024/03/29 07:04:45;;;;;;;12.45;4.10;;;;;;;;;;4973205;28;20536;-81
2024/03/29 07:07:13;;;;;;;12.70;4.63;;;;;;;;;;4972862;28;20054;-82
2024/03/29 07:09:41;;;;;;;21.70;4.57;;;;;;;;;;4973098;28;20077;-81
2024/03/29 07:12:09;;;;;;;12.00;4.38;;;;;;;;;;4957233;28;20058;-83
2024/03/29 07:14:37;;;;;;;9.70;4.57;;;;;;;;;;4972937;28;20063;-82
2024/03/29 07:17:06;;;;;;;9.40;4.47;;;;;;;;;;4972540;28;20063;-81
2024/03/29 07:19:34;;;;;;;9.68;4.45;;;;;;;;;;4957257;28;20062;-82
2024/03/29 07:22:02;;;;;;;12.23;4.43;;;;;;;;;;4973327;28;20043;-82
2024/03/29 07:24:30;;;;;;;14.73;5.57;;;;;;;;;;4972107;28;20055;-83
2024/03/29 07:26:58;;;;;;;11.35;4.68;;;;;;;;;;4973450;28;20066;-82
2024/03/29 07:29:27;;;;;;;12.95;5.75;;;;;;;;;;4972506;28;20058;-82
2024/03/29 07:31:55;;;;;;;13.75;4.60;;;;;;;;;;4973776;28;20050;-81
2024/03/29 07:34:23;;;;;;;13.43;5.57;;;;;;;;;;4972255;28;20063;-81
2024/03/29 07:36:51;;;;;;;12.02;5.05;;;;;;;;;;4972638;28;20054;-82
2024/03/29 07:39:20;;;;;;;11.38;4.53;;;;;;;;;;4973279;28;20153;-84
2024/03/29 07:41:48;;;;;;;12.07;4.55;;;;;;;;;;4972730;28;20066;-82
2024/03/29 07:44:16;;;;;;;10.57;4.78;;;;;;;;;;4969811;28;20066;-82
2024/03/29 07:46:46;;;;;;;10.88;4.38;;;;;;;;;;4967453;28;20113;-83
2024/03/29 07:49:15;;;;;;;9.40;4.05;;;;;;;;;;4970697;28;20058;-82
2024/03/29 07:51:43;;;;;;;11.73;4.75;;;;;;;;;;4964868;28;20050;-82
2024/03/29 07:54:11;;;;;;;10.38;4.65;;;;;;;;;;4972177;28;20418;-82
2024/03/29 07:56:39;;;;;;;10.70;4.90;;;;;;;;;;4972490;28;20062;-82
2024/03/29 07:59:08;;;;;;;10.20;4.22;;;;;;;;;;4972260;28;20069;-81
2024/03/29 08:01:36;;;;;;;10.70;4.57;;;;;;;;;;4972365;28;20059;-82
2024/03/29 08:04:04;;;;;;;11.45;4.38;;;;;;;;;;4972491;28;20057;-82
2024/03/29 08:06:33;;;;;;;9.23;3.97;;;;;;;;;;4972263;28;20508;-81
2024/03/29 08:09:01;;;;;;;12.85;5.03;;;;;;;;;;4973552;28;20058;-81
2024/03/29 08:11:29;;;;;;;13.73;4.70;;;;;;;;;;4957957;28;20059;-81
2024/03/29 08:13:58;;;;;;;10.32;4.72;;;;;;;;;;4983010;28;20046;-80
2024/03/29 08:16:27;;;;;;;13.82;4.32;;;;;;;;;;4983913;28;20051;-80
2024/03/29 08:18:55;;;;;;;18.02;4.45;;;;;;;;;;4977452;28;20497;-82
2024/03/29 08:21:23;;;;;;;11.95;4.40;;;;;;;;;;4976155;28;20055;-82
2024/03/29 08:23:51;;;;;;;9.18;4.80;;;;;;;;;;4976536;28;20426;-81
2024/03/29 08:26:19;;;;;;;12.07;4.32;;;;;;;;;;4976014;28;20058;-83
2024/03/29 08:28:48;;;;;;;11.02;4.40;;;;;;;;;;4975911;28;20059;-83
2024/03/29 08:31:16;;;;;;;17.98;5.13;;;;;;;;;;4975650;28;20417;-82
2024/03/29 08:33:44;;;;;;;13.73;4.60;;;;;;;;;;4976005;28;20054;-84
2024/03/29 08:36:15;;;;;;;16.25;4.43;;;;;;;;;;4976003;28;20050;-82
2024/03/29 08:38:45;;;;;;;8.70;3.95;;;;;;;;;;4976640;28;20070;-82
2024/03/29 08:41:14;;;;;;;14.80;4.13;;;;;;;;;;4976083;28;20055;-83
2024/03/29 08:43:42;;;;;;;10.30;3.65;;;;;;;;;;4975581;28;20054;-83
2024/03/29 08:46:12;;;;;;;9.63;3.30;;;;;;;;;;4975947;28;20061;-83
2024/03/29 08:48:43;;;;;;;8.18;3.83;;;;;;;;;;4975718;28;20510;-82
2024/03/29 08:51:11;;;;;;;12.80;3.80;;;;;;;;;;4975198;28;20062;-82
2024/03/29 08:53:39;;;;;;;8.32;3.58;;;;;;;;;;4975899;28;20054;-83
2024/03/29 08:59:02;;;;;;;6.97;3.22;;;;;;;;;;4974978;28;20050;-82
2024/03/29 09:01:31;;;;;;;10.40;3.75;;;;;;;;;;4975204;28;20055;-81
2024/03/29 09:03:59;;;;;;;8.75;3.47;;;;;;;;;;4975551;28;20062;-82
2024/03/29 09:06:27;;;;;;;8.45;3.35;;;;;;;;;;4975509;28;20059;-81
2024/03/29 09:08:55;;;;;;;12.13;4.25;;;;;;;;;;4975462;28;20512;-82
2024/03/29 09:11:23;;;;;;;7.28;3.17;;;;;;;;;;4975457;28;20063;-82
2024/03/29 09:13:53;;;;;;;8.38;3.60;;;;;;;;;;4959391;28;20062;-83
2024/03/29 09:16:22;;;;;;;6.00;3.22;;;;;;;;;;4976164;28;20047;-83
2024/03/29 09:18:52;;;;;;;12.45;3.67;;;;;;;;;;4974573;28;20062;-82
2024/03/29 09:21:21;;;;;;;15.35;4.28;;;;;;;;;;4974929;28;20501;-82
2024/03/29 09:23:52;;;;;;;8.23;3.67;;;;;;;;;;4974221;28;20054;-82
2024/03/29 09:26:20;;;;;;;7.03;3.53;;;;;;;;;;4959296;28;20062;-82
2024/03/29 09:28:48;;;;;;;8.75;3.63;;;;;;;;;;4975820;28;20478;-83
2024/03/29 09:31:16;;;;;;;9.73;4.00;;;;;;;;;;4974960;28;20055;-82
2024/03/29 09:33:49;;;;;;;6.20;3.63;;;;;;;;;;4975060;28;20489;-82
2024/03/29 09:36:17;;;;;;;10.77;4.07;;;;;;;;;;4974386;28;20043;-83
2024/03/29 09:38:45;;;;;;;12.20;4.10;;;;;;;;;;4974750;28;20059;-83
2024/03/29 09:41:21;;;;;;;14.07;4.22;;;;;;;;;;4974238;28;20062;-83
2024/03/29 09:43:54;;;;;;;24.02;3.75;;;;;;;;;;4958412;28;20062;-82
2024/03/29 09:46:24;;;;;;;9.88;3.70;;;;;;;;;;4974293;28;20070;-82
2024/03/29 09:48:53;;;;;;;13.68;4.07;;;;;;;;;;4973901;28;20051;-82
2024/03/29 09:51:22;;;;;;;11.07;3.85;;;;;;;;;;4965722;28;20050;-83
2024/03/29 09:53:51;;;;;;;6.68;3.20;;;;;;;;;;4968545;28;20055;-82
2024/03/29 09:56:20;;;;;;;13.32;3.42;;;;;;;;;;4974510;28;20054;-82
2024/03/29 09:58:48;;;;;;;10.15;3.28;;;;;;;;;;4973222;28;20521;-82
2024/03/29 10:01:16;;;;;;;11.30;3.95;;;;;;;;;;4974553;28;20050;-82
2024/03/29 10:03:51;;;;;;;11.93;5.65;;;;;;;;;;4973329;28;20425;-82
2024/03/29 10:06:21;;;;;;;8.57;3.15;;;;;;;;;;4974276;28;20051;-83
2024/03/29 10:08:49;;;;;;;9.43;3.50;;;;;;;;;;4974145;28;20061;-82
2024/03/29 10:11:19;;;;;;;9.45;4.95;;;;;;;;;;4975329;28;20367;-81
2024/03/29 10:13:47;;;;;;;11.63;4.13;;;;;;;;;;4974229;28;20053;-81
2024/03/29 10:16:21;;;;;;;11.20;3.78;;;;;;;;;;4973769;28;20066;-80
2024/03/29 10:18:49;;;;;;;11.80;3.20;;;;;;;;;;4973462;28;20051;-83
2024/03/29 10:21:19;;;;;;;7.55;3.72;;;;;;;;;;4974143;28;20410;-81
2024/03/29 10:23:48;;;;;;;6.25;3.17;;;;;;;;;;4974259;28;20047;-82
2024/03/29 10:26:16;;;;;;;7.88;3.08;;;;;;;;;;4973497;28;20063;-81
2024/03/29 10:28:46;;;;;;;8.43;3.05;;;;;;;;;;4973041;28;20050;-81
2024/03/29 10:31:14;;;;;;;6.57;2.65;;;;;;;;;;4973335;28;20062;-82
2024/03/29 10:33:44;;;;;;;6.60;2.80;;;;;;;;;;4973104;28;20061;-81
2024/03/29 10:36:13;;;;;;;7.32;2.72;;;;;;;;;;4974742;28;20050;-80
2024/03/29 10:38:47;;;;;;;8.07;3.00;;;;;;;;;;4974108;28;20054;-81
2024/03/29 10:41:16;;;;;;;8.45;2.67;;;;;;;;;;4972664;28;20038;-82
2024/03/29 10:43:48;;;;;;;6.07;2.92;;;;;;;;;;4959142;28;20057;-81
2024/03/29 10:46:17;;;;;;;4.20;2.55;;;;;;;;;;4974294;28;20046;-81
2024/03/29 10:48:49;;;;;;;5.05;2.72;;;;;;;;;;4972701;28;20038;-81
2024/03/29 10:51:20;;;;;;;8.50;2.80;;;;;;;;;;4961217;28;20166;-82
2024/03/29 10:53:49;;;;;;;11.70;2.70;;;;;;;;;;4965209;28;20043;-81
2024/03/29 10:56:20;;;;;;;9.27;3.28;;;;;;;;;;4968373;28;20059;-81
2024/03/29 10:58:52;;;;;;;7.38;3.40;;;;;;;;;;4954980;28;20081;-81
2024/03/29 11:01:23;;;;;;;8.30;3.47;;;;;;;;;;4957098;28;20047;-83
2024/03/29 11:03:57;;;;;;;13.43;3.40;;;;;;;;;;4962217;28;20050;-82
2024/03/29 11:06:29;;;;;;;11.27;4.00;;;;;;;;;;4952168;28;20051;-82
2024/03/29 11:08:59;;;;;;;10.73;4.18;;;;;;;;;;4952704;29;20039;-82
2024/03/29 11:11:31;;;;;;;17.25;4.70;;;;;;;;;;4936291;29;20442;-82
2024/03/29 11:14:07;;;;;;;9.68;4.05;;;;;;;;;;4960347;28;20520;-84
2024/03/29 11:16:36;;;;;;;13.15;4.82;;;;;;;;;;4968382;28;20057;-82
2024/03/29 11:19:06;;;;;;;17.08;3.90;;;;;;;;;;4971805;28;20045;-81
2024/03/29 11:21:34;;;;;;;14.70;4.90;;;;;;;;;;4955711;28;20053;-82
2024/03/29 11:24:05;;;;;;;11.10;4.75;;;;;;;;;;4955575;28;20042;-82
2024/03/29 11:26:34;;;;;;;12.23;4.28;;;;;;;;;;4971416;28;20046;-81
2024/03/29 11:29:03;;;;;;;8.48;4.50;;;;;;;;;;4971425;28;20405;-84
2024/03/29 11:31:32;;;;;;;9.23;3.95;;;;;;;;;;4971296;28;20050;-83
2024/03/29 11:34:00;;;;;;;8.77;3.60;;;;;;;;;;4955326;28;20572;-80
2024/03/29 11:36:31;;;;;;;8.45;3.72;;;;;;;;;;4951817;29;20043;-80
2024/03/29 11:38:59;;;;;;;10.48;4.13;;;;;;;;;;4952037;28;20414;-81
2024/03/29 11:41:29;;;;;;;5.90;3.53;;;;;;;;;;4952132;28;20414;-82
2024/03/29 11:43:57;;;;;;;8.18;2.90;;;;;;;;;;4952461;28;20055;-82
2024/03/29 11:46:27;;;;;;;6.13;2.60;;;;;;;;;;4952433;28;20043;-83
2024/03/29 11:48:55;;;;;;;7.70;3.35;;;;;;;;;;4955045;29;20426;-82
2024/03/29 11:51:26;;;;;;;6.38;2.53;;;;;;;;;;4938560;29;20051;-80
2024/03/29 11:53:54;;;;;;;6.40;3.13;;;;;;;;;;4961658;29;20047;-79
2024/03/29 11:56:23;;;;;;;5.70;2.78;;;;;;;;;;4961877;29;20039;-79
2024/03/29 11:58:53;;;;;;;10.82;3.45;;;;;;;;;;4959140;29;20051;-80
2024/03/29 12:01:21;;;;;;;4.47;2.47;;;;;;;;;;4958094;29;20490;-81
2024/03/29 12:03:50;;;;;;;7.38;2.25;;;;;;;;;;4951966;29;20047;-81
2024/03/29 12:06:19;;;;;;;8.13;2.45;;;;;;;;;;4969394;28;20054;-83
2024/03/29 12:08:50;;;;;;;8.70;2.47;;;;;;;;;;4970718;28;20050;-81
2024/03/29 12:11:18;;;;;;;8.63;2.63;;;;;;;;;;4970961;28;20043;-81
2024/03/29 12:13:50;;;;;;;7.30;2.88;;;;;;;;;;4971128;28;20039;-82
2024/03/29 12:16:20;;;;;;;6.93;2.63;;;;;;;;;;4971072;28;20073;-81
2024/03/29 12:18:48;;;;;;;8.15;2.78;;;;;;;;;;4971039;28;20050;-82
2024/03/29 12:21:16;;;;;;;7.55;2.97;;;;;;;;;;4954750;28;20055;-81
2024/03/29 12:23:49;;;;;;;4.15;2.45;;;;;;;;;;4970909;28;20058;-82
2024/03/29 12:26:22;;;;;;;5.47;2.22;;;;;;;;;;4971660;28;20537;-84
2024/03/29 12:28:51;;;;;;;4.43;2.05;;;;;;;;;;4955792;28;20054;-82
2024/03/29 12:31:19;;;;;;;4.70;3.13;;;;;;;;;;4971209;28;20406;-82
2024/03/29 12:33:53;;;;;;;4.30;2.20;;;;;;;;;;4970699;28;20050;-83
2024/03/29 12:36:29;;;;;;;6.38;2.20;;;;;;;;;;4951932;28;20031;-81
2024/03/29 12:39:02;;;;;;;5.88;2.67;;;;;;;;;;4952366;29;20663;-81
2024/03/29 12:41:31;;;;;;;4.47;1.95;;;;;;;;;;4951584;29;20043;-81
2024/03/29 12:44:00;;;;;;;5.95;1.83;;;;;;;;;;4951350;29;20058;-81
2024/03/29 12:46:28;;;;;;;7.20;2.08;;;;;;;;;;4951256;28;20039;-84
2024/03/29 12:49:00;;;;;;;5.00;2.33;;;;;;;;;;4951771;28;20051;-82
2024/03/29 12:51:29;;;;;;;4.85;1.63;;;;;;;;;;4959763;28;20490;-82
2024/03/29 12:54:03;;;;;;;7.90;2.03;;;;;;;;;;4968065;28;20061;-83
2024/03/29 12:56:32;;;;;;;5.63;2.42;;;;;;;;;;4969226;28;20043;-82
2024/03/29 12:59:01;;;;;;;4.63;2.00;;;;;;;;;;4973054;28;20054;-82
2024/03/29 13:01:29;;;;;;;3.53;1.63;;;;;;;;;;4950581;28;20062;-82
2024/03/29 13:03:57;;;;;;;4.78;1.58;;;;;;;;;;4972586;28;20042;-81
2024/03/29 13:06:25;;;;;;;4.22;1.63;;;;;;;;;;4937887;28;20070;-82
2024/03/29 13:08:53;;;;;;;3.88;1.55;;;;;;;;;;4953509;29;20069;-81
2024/03/29 13:11:22;;;;;;;3.45;1.42;;;;;;;;;;4938598;29;20039;-82
2024/03/29 13:13:50;;;;;;;3.90;1.90;;;;;;;;;;4955318;29;20410;-82
2024/03/29 13:16:19;;;;;;;3.47;1.60;;;;;;;;;;4954943;28;20047;-82
2024/03/29 13:18:47;;;;;;;4.13;1.90;;;;;;;;;;4954705;29;20482;-82
2024/03/29 13:21:15;;;;;;;5.07;1.83;;;;;;;;;;4954572;29;20062;-80
2024/03/29 13:23:43;;;;;;;3.25;1.63;;;;;;;;;;4954179;28;20663;-84
2024/03/29 13:26:12;;;;;;;4.18;1.55;;;;;;;;;;4954499;29;20067;-82
2024/03/29 13:28:40;;;;;;;5.07;1.58;;;;;;;;;;4955494;28;20070;-84
2024/03/29 13:31:08;;;;;;;3.70;1.40;;;;;;;;;;4954478;29;20054;-84
2024/03/29 13:33:38;;;;;;;7.82;1.80;;;;;;;;;;4953916;28;20047;-82
2024/03/29 13:36:06;;;;;;;3.65;1.60;;;;;;;;;;4953727;28;20517;-82
2024/03/29 13:38:34;;;;;;;5.88;1.65;;;;;;;;;;4955558;28;20490;-82
2024/03/29 13:41:03;;;;;;;6.78;1.83;;;;;;;;;;4972468;28;20046;-83
2024/03/29 13:43:34;;;;;;;2.47;1.35;;;;;;;;;;4951433;28;20073;-84
2024/03/29 13:46:03;;;;;;;;;;;;;;;;;;4961194;28;20055;-82
2024/03/29 13:48:31;;;;;;;6.00;1.52;;;;;;;;;;4967266;28;19944;-81
2024/03/29 13:51:00;;;;;;;4.10;1.42;;;;;;;;;;4957339;28;20482;-82
2024/03/29 13:53:34;;;;;;;4.93;1.58;;;;;;;;;;4973145;28;20497;-81
2024/03/29 13:56:03;;;;;;;3.53;1.40;;;;;;;;;;4963172;28;20533;-81
2024/03/29 13:58:31;;;;;;;3.67;1.60;;;;;;;;;;4972350;28;20502;-80
2024/03/29 14:01:01;;;;;;;4.85;2.50;;;;;;;;;;4971325;28;20418;-81
2024/03/29 14:03:29;;;;;;;8.38;2.85;;;;;;;;;;4959270;28;20363;-81
2024/03/29 14:05:57;;;;;;;3.97;1.85;;;;;;;;;;4966983;28;20061;-82
2024/03/29 14:08:26;;;;;;;3.33;1.42;;;;;;;;;;4973110;28;20043;-82
2024/03/29 14:10:54;;;;;;;6.68;1.50;;;;;;;;;;4956337;28;20047;-82
2024/03/29 14:13:22;;;;;;;9.02;2.63;;;;;;;;;;4967867;28;20039;-83
2024/03/29 14:15:51;;;;;;;5.18;1.50;;;;;;;;;;4967703;28;20556;-84
2024/03/29 14:18:19;;;;;;;6.03;1.60;;;;;;;;;;4943520;29;20055;-81
2024/03/29 14:20:48;;;;;;;5.07;2.10;;;;;;;;;;4970616;28;20051;-82
2024/03/29 14:23:19;;;;;;;2.63;1.23;;;;;;;;;;4961027;28;20406;-81
2024/03/29 14:25:47;;;;;;;3.75;1.52;;;;;;;;;;4962374;28;20051;-82
2024/03/29 14:28:15;;;;;;;3.35;1.40;;;;;;;;;;4939562;29;20080;-83
2024/03/29 14:30:43;;;;;;;3.47;1.60;;;;;;;;;;4971204;28;20115;-83
2024/03/29 14:33:12;;;;;;;4.18;1.42;;;;;;;;;;4954643;28;20050;-82
2024/03/29 14:35:40;;;;;;;4.80;2.00;;;;;;;;;;4947043;28;20042;-83
2024/03/29 14:38:09;;;;;;;2.13;1.20;;;;;;;;;;4956624;28;20055;-83
2024/03/29 14:40:38;;;;;;;3.30;1.55;;;;;;;;;;4958395;28;20031;-82
2024/03/29 14:43:07;;;;;;;9.07;4.75;;;;;;;;;;4966382;28;20539;-83
2024/03/29 14:45:35;;;;;;;6.78;1.50;;;;;;;;;;4957739;28;20062;-82
2024/03/29 14:48:03;;;;;;;7.75;3.85;;;;;;;;;;4956993;28;20427;-83
2024/03/29 14:50:31;;;;;;;2.15;1.50;;;;;;;;;;4937514;29;20062;-83
2024/03/29 14:53:02;;;;;;;5.45;1.30;;;;;;;;;;4963615;28;20058;-83
2024/03/29 14:55:33;;;;;;;6.22;1.10;;;;;;;;;;4965549;28;20047;-83
2024/03/29 14:58:01;;;;;;;2.92;1.35;;;;;;;;;;4955448;28;20184;-83